Time;durP1;ratioP1;P1;durP2;ratioP2;P2;SDS_P1;SDS_P2;PMS_P1;PMS_P2;Temp;Humidity;BMP_temperature;BMP_pressure;BME280_temperature;BME280_humidity;BME280_pressure;Samples;Min_cycle;Max_cycle;Signal;HPM_P1;HPM_P2
2023/07/06 00:02:29;;;;;;;0.30;0.30;;;;;;;13.95;100.00;101454.75;10257649;28;20097;-65
2023/07/06 00:07:30;;;;;;;14.90;3.97;;;;;;;14.01;100.00;101462.09;10257451;28;20479;-65
2023/07/06 00:12:31;;;;;;;7.55;5.28;;;;;;;14.04;100.00;101455.38;10257517;29;20039;-65
2023/07/06 00:17:31;;;;;;;19.33;4.25;;;;;;;14.07;100.00;101464.00;10271645;28;20043;-65
2023/07/06 00:22:31;;;;;;;17.58;5.22;;;;;;;14.22;100.00;101479.31;10256885;28;20032;-63
2023/07/06 00:27:32;;;;;;;7.13;4.80;;;;;;;14.34;100.00;101474.91;10254951;29;20027;-65
2023/07/06 00:32:33;;;;;;;6.70;3.63;;;;;;;14.43;100.00;101469.06;10257058;28;20043;-65
2023/07/06 00:37:34;;;;;;;24.65;5.43;;;;;;;14.48;100.00;101471.13;10254896;29;20039;-65
2023/07/06 00:42:34;;;;;;;5.22;3.78;;;;;;;14.48;100.00;101473.03;10256452;28;20399;-65
2023/07/06 00:47:48;;;;;;;18.35;5.47;;;;;;;14.42;100.00;101467.38;10254682;29;20443;-63
2023/07/06 00:53:11;;;;;;;13.73;4.68;;;;;;;14.35;100.00;101471.13;10253254;28;20051;-64
2023/07/06 00:58:18;;;;;;;13.02;4.50;;;;;;;14.29;100.00;101466.53;10254278;29;20367;-65
2023/07/06 01:03:19;;;;;;;11.27;4.60;;;;;;;14.28;100.00;101471.13;10253928;29;20031;-65
2023/07/06 01:08:20;;;;;;;10.30;4.97;;;;;;;14.24;100.00;101471.78;10255255;28;20035;-65
2023/07/06 01:13:21;;;;;;;17.83;4.75;;;;;;;14.23;100.00;101472.81;10255491;28;20032;-65
2023/07/06 01:18:26;;;;;;;14.68;5.20;;;;;;;14.26;100.00;101464.22;10253089;29;20042;-65
2023/07/06 01:23:49;;;;;;;18.60;4.53;;;;;;;14.27;100.00;101469.47;10253666;29;20110;-65
2023/07/06 01:29:32;;;;;;;22.27;5.82;;;;;;;14.28;100.00;101462.97;10238842;29;20163;-65
2023/07/06 01:34:43;;;;;;;14.27;6.60;;;;;;;14.29;100.00;101464.63;10248934;29;20126;-65
2023/07/06 01:39:43;;;;;;;15.10;4.90;;;;;;;14.28;100.00;101470.31;10252231;29;20205;-65
2023/07/06 01:44:47;;;;;;;16.30;4.55;;;;;;;14.27;100.00;101460.47;10251456;29;20046;-68
2023/07/06 01:49:49;;;;;;;15.60;6.32;;;;;;;14.25;100.00;101460.66;10221433;29;20031;-66
2023/07/06 01:54:58;;;;;;;36.17;6.57;;;;;;;14.36;100.00;101470.13;10253774;28;20543;-65
2023/07/06 02:00:00;;;;;;;12.85;5.07;;;;;;;14.46;100.00;101467.81;10252875;28;20058;-65
2023/07/06 02:05:02;;;;;;;18.45;5.55;;;;;;;14.54;100.00;101475.78;10251020;28;20035;-65
2023/07/06 02:10:03;;;;;;;12.98;6.18;;;;;;;14.58;100.00;101468.03;10253820;29;20031;-65
2023/07/06 02:15:06;;;;;;;15.80;5.57;;;;;;;14.62;100.00;101466.59;10253163;28;20042;-65
2023/07/06 02:20:08;;;;;;;18.52;5.90;;;;;;;14.65;100.00;101472.44;10252646;28;20083;-65
2023/07/06 02:25:08;;;;;;;11.98;6.10;;;;;;;14.72;100.00;101463.44;10250611;29;20031;-65
2023/07/06 02:30:09;;;;;;;15.07;6.53;;;;;;;14.75;100.00;101460.28;10253315;28;20122;-65
2023/07/06 02:35:10;;;;;;;11.57;5.28;;;;;;;14.79;100.00;101456.06;10254969;28;20039;-65
2023/07/06 02:40:11;;;;;;;16.42;5.22;;;;;;;14.82;100.00;101463.84;10253630;29;20039;-65
2023/07/06 02:45:11;;;;;;;22.85;6.75;;;;;;;14.85;100.00;101464.25;10253520;29;20086;-65
2023/07/06 02:50:12;;;;;;;20.95;5.72;;;;;;;14.84;100.00;101475.38;10253040;28;20459;-65
2023/07/06 02:55:12;;;;;;;18.02;5.00;;;;;;;14.81;100.00;101481.25;10249794;29;20081;-65
2023/07/06 03:00:13;;;;;;;7.55;4.68;;;;;;;14.84;100.00;101480.81;10251964;28;20066;-65
2023/07/06 03:05:14;;;;;;;14.13;5.30;;;;;;;14.86;100.00;101479.53;10251335;28;20031;-65
2023/07/06 03:10:17;;;;;;;14.57;4.32;;;;;;;14.88;100.00;101485.63;10251575;29;20106;-65
2023/07/06 03:15:17;;;;;;;10.32;5.20;;;;;;;14.94;100.00;101486.69;10253035;28;20068;-65
2023/07/06 03:20:19;;;;;;;5.05;3.33;;;;;;;14.90;100.00;101485.44;10259440;28;20341;-66
2023/07/06 03:25:24;;;;;;;19.75;6.97;;;;;;;14.80;100.00;101490.47;10257445;29;20031;-65
2023/07/06 03:30:28;;;;;;;13.18;4.97;;;;;;;14.74;100.00;101491.28;10259108;28;20463;-66
2023/07/06 03:35:28;;;;;;;12.68;4.93;;;;;;;14.67;100.00;101499.47;10258567;29;20031;-65
2023/07/06 03:40:30;;;;;;;9.48;4.07;;;;;;;14.57;100.00;101491.72;10241303;29;20043;-65
2023/07/06 03:45:30;;;;;;;9.27;4.15;;;;;;;14.50;100.00;101496.31;10257557;29;20122;-64
2023/07/06 03:50:31;;;;;;;10.32;4.53;;;;;;;14.42;100.00;101505.53;10272797;28;20035;-65
2023/07/06 03:55:32;;;;;;;15.80;5.75;;;;;;;14.46;100.00;101503.22;10258656;28;20095;-66
2023/07/06 04:00:34;;;;;;;13.30;5.15;;;;;;;14.41;100.00;101495.66;10258108;29;20074;-65
2023/07/06 04:05:37;;;;;;;14.88;6.35;;;;;;;14.46;100.00;101511.41;10256599;29;20035;-66
2023/07/06 04:10:38;;;;;;;15.10;4.93;;;;;;;14.50;100.00;101515.38;10256765;28;20432;-65
2023/07/06 04:15:40;;;;;;;21.92;6.82;;;;;;;14.55;100.00;101510.19;10240593;29;20117;-65
2023/07/06 04:20:40;;;;;;;7.05;4.20;;;;;;;14.60;100.00;101513.13;10255420;29;20476;-65
2023/07/06 04:25:40;;;;;;;18.95;6.05;;;;;;;14.62;100.00;101510.19;10256512;28;20221;-66
2023/07/06 04:30:43;;;;;;;13.43;6.53;;;;;;;14.64;100.00;101518.97;10255157;29;20031;-66
2023/07/06 04:35:43;;;;;;;9.00;6.30;;;;;;;14.72;100.00;101515.22;10256636;28;20051;-65
2023/07/06 04:40:45;;;;;;;10.43;7.13;;;;;;;14.75;100.00;101520.25;10256573;28;20039;-67
2023/07/06 04:45:45;;;;;;;18.45;5.65;;;;;;;15.12;100.00;101516.00;10254502;29;20070;-66
2023/07/06 04:50:46;;;;;;;15.95;6.43;;;;;;;16.08;100.00;101541.75;10255097;29;20444;-66
2023/07/06 04:55:46;;;;;;;12.60;6.63;;;;;;;16.23;100.00;101534.09;10257208;28;20403;-66
2023/07/06 05:00:48;;;;;;;15.32;6.28;;;;;;;16.85;100.00;101537.91;10253086;29;20123;-67
2023/07/06 05:05:48;;;;;;;15.80;7.35;;;;;;;17.31;100.00;101542.06;10255841;28;20063;-66
2023/07/06 05:10:50;;;;;;;22.27;7.32;;;;;;;17.59;100.00;101543.47;10257132;29;20066;-67
2023/07/06 05:15:51;;;;;;;20.55;6.53;;;;;;;17.85;100.00;101545.91;10256687;28;20034;-67
2023/07/06 05:20:53;;;;;;;8.52;5.75;;;;;;;18.21;100.00;101544.16;10253646;29;20114;-67
2023/07/06 05:26:00;;;;;;;22.67;6.50;;;;;;;18.49;100.00;101556.41;10254320;28;20123;-67
2023/07/06 05:31:02;;;;;;;15.27;7.43;;;;;;;18.74;100.00;101564.50;10253709;28;20043;-67
2023/07/06 05:36:03;;;;;;;16.90;6.75;;;;;;;19.12;100.00;101563.25;10253548;28;20443;-66
2023/07/06 05:41:04;;;;;;;19.70;5.35;;;;;;;19.40;100.00;101566.09;10253432;28;20134;-66
2023/07/06 05:46:04;;;;;;;15.27;4.25;;;;;;;19.70;100.00;101563.19;10252984;29;20095;-67
2023/07/06 05:51:04;;;;;;;13.05;4.85;;;;;;;19.96;100.00;101558.25;10251903;29;20043;-68
2023/07/06 05:56:05;;;;;;;16.77;5.95;;;;;;;20.31;100.00;101566.34;10252234;29;20055;-66
2023/07/06 06:01:05;;;;;;;13.90;6.47;;;;;;;20.86;100.00;101573.94;10254285;29;20078;-68
2023/07/06 06:06:07;;;;;;;5.57;4.07;;;;;;;20.97;100.00;101583.22;10255074;28;20039;-67
2023/07/06 06:11:07;;;;;;;6.43;4.45;;;;;;;20.86;100.00;101587.72;10251045;29;20063;-66
2023/07/06 06:16:11;;;;;;;12.57;7.05;;;;;;;19.82;100.00;101598.09;10251383;29;20063;-67
2023/07/06 06:21:12;;;;;;;8.65;5.43;;;;;;;19.84;100.00;101601.41;10252538;28;20043;-66
2023/07/06 06:26:13;;;;;;;17.35;5.60;;;;;;;21.44;100.00;101607.69;10251242;29;20038;-66
2023/07/06 06:31:14;;;;;;;11.82;4.65;;;;;;;21.33;100.00;101614.09;10266509;28;20086;-67
2023/07/06 06:36:16;;;;;;;16.73;5.00;;;;;;;21.74;100.00;101609.19;10250882;29;20419;-67
2023/07/06 06:41:16;;;;;;;4.63;2.72;;;;;;;20.90;100.00;101613.69;10251137;28;20114;-67
2023/07/06 06:46:17;;;;;;;8.10;4.00;;;;;;;21.46;100.00;101612.94;10251882;29;20031;-67
2023/07/06 06:51:17;;;;;;;11.20;2.30;;;;;;;23.63;100.00;101616.59;10248855;28;20054;-68
2023/07/06 06:56:17;;;;;;;3.90;2.15;;;;;;;23.42;100.00;101612.88;10251128;29;20051;-67
2023/07/06 07:01:18;;;;;;;10.40;4.03;;;;;;;21.91;100.00;101606.38;10233790;29;20039;-67
2023/07/06 07:06:22;;;;;;;3.50;2.35;;;;;;;20.40;100.00;101621.81;10249122;29;20468;-66
2023/07/06 07:11:22;;;;;;;6.28;3.10;;;;;;;19.38;100.00;101634.16;10250495;28;20086;-67
2023/07/06 07:16:23;;;;;;;10.00;2.72;;;;;;;20.98;100.00;101623.44;10250284;29;20064;-67
2023/07/06 07:21:23;;;;;;;5.53;2.53;;;;;;;22.11;100.00;101630.63;10251345;28;20039;-67
2023/07/06 07:26:25;;;;;;;4.72;2.70;;;;;;;23.71;100.00;101627.22;10251149;29;20383;-66
2023/07/06 07:31:27;;;;;;;6.40;2.22;;;;;;;23.17;100.00;101642.00;10249679;29;20035;-67
2023/07/06 07:36:27;;;;;;;4.90;2.72;;;;;;;22.99;100.00;101631.34;10249396;28;20035;-67
2023/07/06 07:41:28;;;;;;;2.70;1.95;;;;;;;23.98;100.00;101637.28;10253304;29;20031;-67
2023/07/06 07:46:29;;;;;;;5.55;3.55;;;;;;;22.90;100.00;101642.00;10253398;28;20094;-66
2023/07/06 07:51:31;;;;;;;5.00;3.53;;;;;;;21.52;100.00;101637.56;10248271;29;20090;-66
2023/07/06 07:56:31;;;;;;;9.13;2.95;;;;;;;22.97;100.00;101630.75;10264395;28;20142;-67
2023/07/06 08:01:32;;;;;;;8.40;3.17;;;;;;;23.24;100.00;101636.25;10251820;28;20455;-66
2023/07/06 08:06:32;;;;;;;8.27;3.60;;;;;;;23.80;100.00;101644.09;10256324;29;20038;-65
2023/07/06 08:11:36;;;;;;;3.83;3.35;;;;;;;23.17;100.00;101646.69;10256680;29;20042;-66
2023/07/06 08:16:36;;;;;;;11.48;3.40;;;;;;;24.21;100.00;101647.06;10239692;29;20117;-66
2023/07/06 08:21:37;;;;;;;5.38;2.53;;;;;;;22.52;100.00;101654.88;10255690;29;20531;-67
2023/07/06 08:26:38;;;;;;;2.25;2.00;;;;;;;21.56;100.00;101663.50;10255916;29;20130;-67
2023/07/06 08:31:38;;;;;;;4.05;2.45;;;;;;;21.49;100.00;101673.06;10271767;28;20506;-66
2023/07/06 08:36:39;;;;;;;2.97;1.83;;;;;;;23.04;100.00;101675.59;10255555;28;20097;-68
2023/07/06 08:41:42;;;;;;;1.85;1.35;;;;;;;22.69;100.00;101676.88;10255944;28;20039;-67
2023/07/06 08:46:45;;;;;;;2.83;2.15;;;;;;;22.74;100.00;101684.38;10256592;28;20076;-67
2023/07/06 08:51:46;;;;;;;8.77;1.58;;;;;;;21.56;100.00;101693.84;10254382;29;20031;-66
2023/07/06 08:56:48;;;;;;;4.60;2.15;;;;;;;21.31;100.00;101697.00;10238760;29;20141;-66
2023/07/06 09:01:48;;;;;;;6.35;2.13;;;;;;;21.89;100.00;101705.91;10253214;29;20046;-67
2023/07/06 09:06:53;;;;;;;8.73;2.35;;;;;;;23.68;100.00;101705.13;10239136;29;20042;-67
2023/07/06 09:11:53;;;;;;;2.33;1.98;;;;;;;24.34;100.00;101704.69;10253386;28;20035;-67
2023/07/06 09:16:55;;;;;;;8.13;2.15;;;;;;;24.81;100.00;101704.59;10236601;29;20387;-67
2023/07/06 09:21:56;;;;;;;1.70;1.50;;;;;;;23.53;100.00;101714.16;10237305;29;20037;-66
2023/07/06 09:26:57;;;;;;;2.85;1.48;;;;;;;22.54;100.00;101711.75;10254302;29;20118;-67
2023/07/06 09:32:07;;;;;;;2.38;1.80;;;;;;;23.84;100.00;101706.94;10253014;28;20447;-66
2023/07/06 09:37:16;;;;;;;2.88;1.52;;;;;;;24.96;96.36;101712.13;10253345;28;20503;-67
2023/07/06 09:42:17;;;;;;;2.35;1.60;;;;;;;24.81;100.00;101725.94;10253603;29;20105;-67
2023/07/06 09:47:17;;;;;;;1.80;1.70;;;;;;;25.74;100.00;101722.13;10252878;29;20035;-67
2023/07/06 09:52:19;;;;;;;3.40;1.27;;;;;;;25.30;75.52;101719.94;10251440;29;20059;-67
2023/07/06 09:57:19;;;;;;;1.30;1.30;;;;;;;25.23;85.75;101727.69;10252579;29;20074;-66
2023/07/06 10:02:24;;;;;;;0.93;0.93;;;;;;;26.07;68.23;101730.97;10253141;28;20087;-67
2023/07/06 10:07:52;;;;;;;1.90;1.30;;;;;;;25.62;71.67;101728.00;10251091;29;20042;-67
2023/07/06 10:13:04;;;;;;;1.30;0.80;;;;;;;25.81;89.29;101732.97;10252110;29;20464;-67
2023/07/06 10:18:23;;;;;;;8.90;1.42;;;;;;;26.55;63.42;101742.50;10237452;29;20046;-67
2023/07/06 10:24:01;;;;;;;2.50;1.60;;;;;;;27.16;62.44;101738.56;10221235;29;20035;-67
2023/07/06 10:29:04;;;;;;;1.30;1.20;;;;;;;27.24;80.57;101737.94;10250507;29;20035;-66
2023/07/06 10:34:10;;;;;;;1.58;1.45;;;;;;;27.37;71.94;101734.50;10234438;29;20035;-66
2023/07/06 10:39:32;;;;;;;1.30;1.30;;;;;;;26.74;52.42;101742.69;10219015;29;20517;-67
2023/07/06 10:44:43;;;;;;;1.88;1.38;;;;;;;26.67;63.66;101754.97;10220882;28;20035;-67
2023/07/06 10:50:06;;;;;;;2.90;1.50;;;;;;;26.53;65.93;101751.13;10252106;28;20031;-66
2023/07/06 10:55:15;;;;;;;1.15;1.08;;;;;;;25.41;52.98;101754.06;10251048;28;20059;-68
2023/07/06 11:00:17;;;;;;;1.60;1.05;;;;;;;26.59;68.22;101763.88;10251334;29;20043;-69
2023/07/06 11:05:28;;;;;;;2.42;1.38;;;;;;;27.15;47.11;101756.38;10249441;29;20470;-68
2023/07/06 11:10:36;;;;;;;0.80;0.80;;;;;;;26.96;58.22;101759.78;10219026;29;20039;-67
2023/07/06 11:15:38;;;;;;;1.23;1.13;;;;;;;26.92;53.95;101764.25;10252651;28;20073;-67
2023/07/06 11:20:39;;;;;;;1.10;1.10;;;;;;;27.15;49.59;101759.13;10237432;29;20058;-69
2023/07/06 11:25:39;;;;;;;1.45;1.35;;;;;;;27.21;58.97;101769.13;10250706;29;20191;-67
2023/07/06 11:30:49;;;;;;;3.22;1.17;;;;;;;27.76;62.22;101762.28;10252242;28;20457;-68
2023/07/06 11:36:06;;;;;;;4.40;1.50;;;;;;;27.94;52.24;101768.25;10249586;28;20047;-68
2023/07/06 11:41:17;;;;;;;4.28;1.70;;;;;;;27.00;51.65;101771.19;10257273;29;20467;-69
2023/07/06 11:46:23;;;;;;;1.23;1.17;;;;;;;27.83;54.63;101775.88;10257120;29;20385;-69
2023/07/06 11:51:23;;;;;;;1.23;1.23;;;;;;;27.96;57.26;101779.94;10257827;28;20103;-68
2023/07/06 12:01:57;;;;;;;1.25;1.15;;;;;;;28.42;57.45;101779.44;10256317;29;20102;-67
2023/07/06 12:06:57;;;;;;;1.83;1.33;;;;;;;27.10;60.16;101780.28;10255232;29;20035;-68
2023/07/06 12:12:03;;;;;;;1.65;1.55;;;;;;;27.46;53.19;101774.47;10254955;29;20442;-68
2023/07/06 12:17:06;;;;;;;1.85;1.75;;;;;;;27.83;45.37;101773.09;10255536;29;20035;-68
2023/07/06 12:22:12;;;;;;;1.23;1.13;;;;;;;27.59;50.05;101773.81;10256320;29;20105;-68
2023/07/06 12:27:15;;;;;;;1.88;1.40;;;;;;;26.82;47.84;101781.81;10254485;29;20035;-69
2023/07/06 12:32:21;;;;;;;1.55;1.20;;;;;;;26.45;56.40;101785.00;10255002;29;20114;-68
2023/07/06 12:37:23;;;;;;;1.95;1.58;;;;;;;27.15;46.05;101776.66;10254627;29;20042;-68
2023/07/06 12:42:23;;;;;;;1.45;1.35;;;;;;;27.67;52.94;101780.72;10240069;29;20042;-68
2023/07/06 12:47:40;;;;;;;1.67;1.20;;;;;;;28.31;56.88;101773.16;10239612;28;20360;-69
2023/07/06 12:52:41;;;;;;;1.23;1.20;;;;;;;28.60;55.94;101780.63;10257660;28;20044;-68
2023/07/06 12:57:43;;;;;;;2.08;1.88;;;;;;;28.20;55.34;101783.56;10270230;28;20162;-67
2023/07/06 13:02:44;;;;;;;2.20;1.98;;;;;;;28.28;49.77;101780.13;10255320;29;20038;-68
2023/07/06 13:07:50;;;;;;;3.60;1.45;;;;;;;27.48;44.28;101782.56;10222519;29;20035;-68
2023/07/06 13:12:54;;;;;;;1.70;1.58;;;;;;;27.17;51.02;101785.53;10238839;29;20070;-68
2023/07/06 13:18:02;;;;;;;2.22;1.85;;;;;;;27.33;43.88;101767.63;10238294;29;20057;-68
2023/07/06 13:23:04;;;;;;;2.95;1.92;;;;;;;27.65;52.23;101784.91;10253679;29;20134;-68
2023/07/06 13:28:04;;;;;;;2.47;1.55;;;;;;;27.51;48.22;101787.53;10254095;28;20070;-68
2023/07/06 13:33:05;;;;;;;1.33;1.25;;;;;;;27.56;57.18;101777.19;10253649;28;20336;-68
2023/07/06 13:38:05;;;;;;;1.95;1.85;;;;;;;27.43;51.72;101774.25;10253070;29;20039;-68
2023/07/06 13:43:11;;;;;;;6.05;1.88;;;;;;;27.47;51.86;101773.38;10237811;29;20035;-69
2023/07/06 13:48:12;;;;;;;5.55;2.45;;;;;;;27.72;56.89;101772.31;10221078;29;20026;-67
2023/07/06 13:53:12;;;;;;;1.65;1.55;;;;;;;27.90;53.33;101776.38;10236314;29;20047;-69
2023/07/06 13:58:14;;;;;;;6.50;2.72;;;;;;;27.74;54.06;101774.81;10253736;28;20134;-68
2023/07/06 14:03:18;;;;;;;1.85;1.75;;;;;;;27.21;45.92;101771.88;10252051;29;20043;-68
2023/07/06 14:08:20;;;;;;;2.97;2.03;;;;;;;27.18;51.48;101776.06;10252216;28;20036;-70
2023/07/06 14:13:23;;;;;;;1.70;1.60;;;;;;;27.53;54.43;101768.59;10251207;29;20332;-68
2023/07/06 14:18:23;;;;;;;2.25;1.95;;;;;;;27.45;53.19;101770.06;10252800;28;20035;-68
2023/07/06 14:23:26;;;;;;;2.60;1.70;;;;;;;27.48;50.34;101772.25;10250739;29;20106;-68
2023/07/06 14:28:27;;;;;;;5.13;2.17;;;;;;;27.32;50.46;101770.72;10253007;28;20054;-67
2023/07/06 14:33:28;;;;;;;10.48;2.40;;;;;;;26.92;53.76;101758.69;10250144;29;20043;-67
2023/07/06 14:38:28;;;;;;;8.73;2.47;;;;;;;27.02;52.54;101752.25;10250071;29;20129;-68
2023/07/06 14:43:29;;;;;;;2.47;2.28;;;;;;;26.39;48.73;101753.66;10250078;29;20091;-67
2023/07/06 14:48:30;;;;;;;4.72;4.05;;;;;;;26.19;54.58;101762.84;10233975;29;20027;-67
2023/07/06 14:53:30;;;;;;;1.85;1.75;;;;;;;25.88;48.46;101752.97;10250779;28;20074;-68
2023/07/06 14:58:31;;;;;;;2.55;2.35;;;;;;;25.88;54.14;101755.75;10250084;29;20043;-67
2023/07/06 15:03:31;;;;;;;2.88;2.67;;;;;;;26.06;55.70;101757.06;10250898;29;20039;-68
2023/07/06 15:08:31;;;;;;;4.47;2.67;;;;;;;26.18;55.18;101746.50;10266397;28;20071;-66
2023/07/06 15:13:32;;;;;;;2.67;2.30;;;;;;;26.08;55.76;101747.34;10250007;28;20195;-68
2023/07/06 15:18:32;;;;;;;5.15;2.83;;;;;;;25.46;54.85;101754.03;10250859;29;20144;-68
2023/07/06 15:23:33;;;;;;;2.05;1.95;;;;;;;25.65;58.17;101740.44;10251654;29;20050;-68
2023/07/06 15:28:33;;;;;;;7.47;2.90;;;;;;;25.80;56.82;101742.38;10249608;29;20475;-68
2023/07/06 15:33:36;;;;;;;2.47;2.22;;;;;;;25.56;58.47;101736.56;10251112;28;20118;-67
2023/07/06 15:38:36;;;;;;;12.43;3.45;;;;;;;25.21;56.89;101741.84;10249057;29;20093;-68
2023/07/06 15:43:36;;;;;;;9.65;2.53;;;;;;;24.97;57.79;101733.16;10250821;29;20085;-68
2023/07/06 15:48:37;;;;;;;2.50;2.05;;;;;;;24.94;56.83;101739.25;10248419;29;20106;-67
2023/07/06 15:53:37;;;;;;;4.57;2.35;;;;;;;25.09;62.08;101735.69;10249292;29;20148;-67
2023/07/06 15:58:38;;;;;;;6.50;2.88;;;;;;;24.57;60.14;101731.97;10250190;29;20142;-67
2023/07/06 16:03:38;;;;;;;2.85;2.58;;;;;;;24.52;60.37;101720.03;10249699;28;20070;-68
2023/07/06 16:08:39;;;;;;;2.22;1.77;;;;;;;24.24;58.15;101730.38;10249638;28;20047;-68
2023/07/06 16:13:40;;;;;;;3.38;1.92;;;;;;;24.15;63.19;101732.00;10249766;28;20031;-67
2023/07/06 16:18:40;;;;;;;4.05;2.88;;;;;;;24.32;59.49;101732.66;10264690;28;20141;-68
2023/07/06 16:23:43;;;;;;;4.07;2.53;;;;;;;24.25;54.14;101732.06;10251024;28;20130;-67
2023/07/06 16:28:45;;;;;;;3.40;2.13;;;;;;;23.34;56.48;101730.28;10256110;29;20113;-68
2023/07/06 16:33:45;;;;;;;2.15;1.80;;;;;;;22.60;57.18;101732.81;10255287;29;20031;-67
2023/07/06 16:38:46;;;;;;;2.95;2.03;;;;;;;22.29;57.51;101724.13;10256518;29;20043;-67
2023/07/06 16:43:46;;;;;;;11.70;2.97;;;;;;;22.01;58.15;101731.44;10240398;29;20440;-67
2023/07/06 16:48:47;;;;;;;2.15;2.03;;;;;;;21.85;58.13;101717.69;10255386;29;20043;-67
2023/07/06 16:53:47;;;;;;;5.68;3.10;;;;;;;21.67;57.83;101718.81;10254008;29;20059;-67
2023/07/06 16:58:47;;;;;;;2.95;2.20;;;;;;;21.69;59.21;101725.72;10255533;29;20054;-68
2023/07/06 17:03:48;;;;;;;4.68;2.42;;;;;;;21.55;57.48;101716.16;10256212;29;20039;-67
2023/07/06 17:08:48;;;;;;;1.98;1.80;;;;;;;21.48;58.19;101716.31;10255203;29;20116;-67
2023/07/06 17:13:49;;;;;;;4.68;2.35;;;;;;;21.28;59.63;101714.03;10255478;28;20129;-68
2023/07/06 17:18:49;;;;;;;2.40;2.20;;;;;;;21.11;59.45;101715.91;10253757;29;20065;-68
2023/07/06 17:23:50;;;;;;;2.70;2.25;;;;;;;20.97;59.29;101718.16;10252881;29;20066;-67
2023/07/06 17:28:50;;;;;;;7.05;2.60;;;;;;;20.84;60.02;101710.19;10253588;29;20135;-68
2023/07/06 17:33:51;;;;;;;11.63;3.22;;;;;;;20.84;60.49;101712.94;10253368;28;20043;-67
2023/07/06 17:38:51;;;;;;;20.83;16.85;;;;;;;20.87;61.71;101717.97;10254001;28;20145;-68
2023/07/06 17:43:52;;;;;;;4.18;2.42;;;;;;;20.94;60.05;101724.16;10253812;29;20424;-67
2023/07/06 17:48:53;;;;;;;8.32;2.67;;;;;;;20.68;60.80;101725.59;10254834;28;20343;-67
2023/07/06 17:53:53;;;;;;;6.72;2.17;;;;;;;20.78;61.97;101725.78;10253387;28;20063;-68
2023/07/06 17:58:54;;;;;;;3.80;2.35;;;;;;;20.80;61.32;101740.09;10253103;29;20431;-68
2023/07/06 18:03:54;;;;;;;11.27;2.35;;;;;;;20.83;61.29;101736.88;10252012;29;20071;-68
2023/07/06 18:08:55;;;;;;;3.03;2.17;;;;;;;20.71;61.14;101740.75;10251033;29;20035;-66
2023/07/06 18:13:55;;;;;;;5.57;3.55;;;;;;;20.62;60.59;101738.41;10253387;28;20405;-66
2023/07/06 18:18:55;;;;;;;45.47;28.25;;;;;;;20.65;61.62;101743.41;10252123;29;20039;-68
2023/07/06 18:23:56;;;;;;;9.07;4.13;;;;;;;20.59;61.20;101740.81;10234545;29;20067;-67
2023/07/06 18:28:56;;;;;;;5.35;3.78;;;;;;;20.50;61.46;101740.31;10250439;29;20043;-67
2023/07/06 18:33:58;;;;;;;2.88;2.53;;;;;;;20.32;61.66;101738.53;10252472;28;20391;-67
2023/07/06 18:38:58;;;;;;;5.50;2.33;;;;;;;20.09;61.09;101747.66;10250413;29;20047;-68
2023/07/06 18:43:59;;;;;;;4.00;2.67;;;;;;;19.88;61.39;101753.78;10251797;29;20336;-65
2023/07/06 18:48:59;;;;;;;5.60;2.67;;;;;;;19.71;62.09;101754.47;10250226;28;20043;-66
2023/07/06 18:54:00;;;;;;;2.08;1.98;;;;;;;19.60;62.74;101752.53;10250620;29;20514;-67
2023/07/06 18:59:00;;;;;;;2.28;2.08;;;;;;;19.49;62.98;101761.59;10251065;29;20134;-63
2023/07/06 19:04:03;;;;;;;2.72;2.33;;;;;;;19.43;63.18;101762.53;10249413;29;20147;-67
2023/07/06 19:09:04;;;;;;;4.63;2.28;;;;;;;19.34;63.07;101761.22;10250417;28;20039;-67
2023/07/06 19:14:04;;;;;;;2.65;2.33;;;;;;;19.17;63.16;101753.63;10250320;28;20031;-69
2023/07/06 19:19:05;;;;;;;2.03;1.85;;;;;;;18.97;63.47;101753.09;10249723;29;20459;-69
2023/07/06 19:24:05;;;;;;;7.90;2.83;;;;;;;18.85;63.12;101768.66;10250494;29;20055;-70
2023/07/06 19:29:06;;;;;;;5.47;3.35;;;;;;;18.74;63.06;101765.63;10248819;29;20058;-70
2023/07/06 19:34:06;;;;;;;2.95;2.15;;;;;;;18.62;63.17;101772.94;10249190;29;20061;-74
2023/07/06 19:39:07;;;;;;;1.95;1.85;;;;;;;18.53;62.96;101782.53;10250655;28;20046;-70
2023/07/06 19:44:07;;;;;;;2.15;1.95;;;;;;;18.43;62.95;101787.72;10249786;29;20442;-69
2023/07/06 19:49:08;;;;;;;1.83;1.70;;;;;;;18.31;62.41;101785.75;10233225;29;20023;-71
2023/07/06 19:54:08;;;;;;;3.30;2.45;;;;;;;18.17;62.75;101789.69;10248836;29;20407;-70
2023/07/06 19:59:08;;;;;;;1.70;1.60;;;;;;;17.99;63.24;101800.59;10252403;28;20051;-70
2023/07/06 20:04:10;;;;;;;3.28;2.50;;;;;;;17.76;64.08;101812.97;10257540;29;20055;-71
2023/07/06 20:09:11;;;;;;;8.25;2.05;;;;;;;17.57;64.64;101816.72;10257634;28;20114;-70
2023/07/06 20:14:11;;;;;;;1.85;1.75;;;;;;;17.37;64.75;101817.69;10256509;28;20063;-70
2023/07/06 20:19:12;;;;;;;2.13;1.92;;;;;;;17.14;65.51;101826.47;10257792;29;20043;-69
2023/07/06 20:24:12;;;;;;;6.72;2.58;;;;;;;16.98;65.50;101823.41;10241059;29;20042;-70
2023/07/06 20:29:13;;;;;;;4.13;2.97;;;;;;;16.79;66.90;101823.25;10259345;29;20038;-71
2023/07/06 20:34:14;;;;;;;7.47;2.60;;;;;;;16.59;67.05;101826.03;10240210;29;20062;-69
2023/07/06 20:39:14;;;;;;;3.22;2.10;;;;;;;16.47;68.71;101825.84;10257637;29;20039;-71
2023/07/06 20:44:15;;;;;;;6.70;2.40;;;;;;;16.32;69.43;101833.44;10257173;28;20067;-70
2023/07/06 20:49:15;;;;;;;3.28;2.28;;;;;;;16.15;69.39;101832.22;10254658;29;20049;-71
2023/07/06 20:54:16;;;;;;;3.60;2.80;;;;;;;16.06;70.45;101830.75;10254397;29;20054;-71
2023/07/06 20:59:16;;;;;;;3.80;2.78;;;;;;;16.01;72.64;101837.66;10255119;29;20436;-70
2023/07/06 21:04:16;;;;;;;7.88;2.60;;;;;;;15.93;72.11;101837.06;10256273;29;20042;-69
2023/07/06 21:09:17;;;;;;;2.15;1.95;;;;;;;15.86;72.01;101850.72;10252591;28;20066;-70
2023/07/06 21:14:18;;;;;;;3.92;2.38;;;;;;;15.76;72.30;101855.72;10254366;28;20042;-71
2023/07/06 21:19:18;;;;;;;3.50;1.95;;;;;;;15.73;72.75;101856.13;10253885;29;20039;-70
2023/07/06 21:24:19;;;;;;;11.60;5.18;;;;;;;15.65;76.94;101864.53;10254569;28;20328;-70
2023/07/06 21:29:19;;;;;;;4.78;4.38;;;;;;;15.48;75.99;101859.44;10254856;29;20119;-70
2023/07/06 21:34:20;;;;;;;8.02;3.67;;;;;;;15.34;76.00;101872.19;10236519;29;20410;-70
2023/07/06 21:39:23;;;;;;;4.13;3.70;;;;;;;15.28;75.51;101870.31;10254003;28;20229;-71
2023/07/06 21:44:24;;;;;;;7.85;4.28;;;;;;;15.24;75.71;101869.03;10253771;28;20038;-70
2023/07/06 21:49:24;;;;;;;8.48;5.10;;;;;;;15.21;75.57;101869.44;10252454;29;20114;-69
2023/07/06 21:54:27;;;;;;;5.97;4.15;;;;;;;15.18;76.21;101860.81;10254088;28;20066;-69
2023/07/06 21:59:28;;;;;;;2.75;2.50;;;;;;;15.20;77.44;101865.03;10252061;29;20126;-69
2023/07/06 22:04:28;;;;;;;4.68;3.45;;;;;;;15.16;78.34;101868.38;10253941;28;20031;-69
2023/07/06 22:09:29;;;;;;;6.10;2.80;;;;;;;15.09;77.59;101871.06;10253236;28;20039;-69
2023/07/06 22:14:29;;;;;;;4.53;2.47;;;;;;;15.03;78.17;101867.28;10252791;29;20051;-70
2023/07/06 22:19:29;;;;;;;4.38;3.28;;;;;;;15.06;78.80;101871.47;10252837;28;20090;-70
2023/07/06 22:24:30;;;;;;;6.82;4.30;;;;;;;15.00;78.02;101875.88;10268343;28;20035;-69
2023/07/06 22:29:30;;;;;;;5.97;2.42;;;;;;;14.93;79.30;101872.25;10252917;28;20039;-70
2023/07/06 22:34:33;;;;;;;3.35;3.05;;;;;;;14.84;79.25;101868.03;10252950;29;20098;-71
2023/07/06 22:39:33;;;;;;;8.63;3.42;;;;;;;14.74;81.61;101873.00;10252955;28;20125;-70
2023/07/06 22:44:34;;;;;;;4.70;3.38;;;;;;;14.61;80.35;101874.63;10251362;29;20054;-71
2023/07/06 22:49:39;;;;;;;4.65;2.97;;;;;;;14.49;81.95;101876.19;10252068;29;20181;-69
2023/07/06 22:54:40;;;;;;;14.18;3.38;;;;;;;14.41;82.21;101874.44;10270364;28;20456;-70
2023/07/06 22:59:40;;;;;;;7.90;3.17;;;;;;;14.32;81.54;101872.91;10256835;28;20043;-69
2023/07/06 23:04:41;;;;;;;4.30;2.92;;;;;;;14.29;81.89;101884.19;10253207;28;20086;-69